createdAt,value
2017-05-27T00:01:06.797Z,5.96
2017-05-27T00:03:35.267Z,7.26
2017-05-27T00:06:03.677Z,6.00
2017-05-27T00:08:32.153Z,5.84
2017-05-27T00:10:59.839Z,6.48
2017-05-27T00:13:28.292Z,6.98
2017-05-27T00:15:56.705Z,6.20
2017-05-27T00:18:25.144Z,6.28
2017-05-27T00:20:53.511Z,6.58
2017-05-27T00:23:21.928Z,7.18
2017-05-27T00:25:50.350Z,7.30
2017-05-27T00:28:18.785Z,7.22
2017-05-27T00:30:47.351Z,7.12
2017-05-27T00:33:15.752Z,7.76
2017-05-27T00:35:44.232Z,7.36
2017-05-27T00:38:12.720Z,7.40
2017-05-27T00:40:41.148Z,7.34
2017-05-27T00:43:09.647Z,8.56
2017-05-27T00:45:38.084Z,7.14
2017-05-27T00:48:06.528Z,7.50
2017-05-27T00:50:34.907Z,7.54
2017-05-27T00:53:03.296Z,7.48
2017-05-27T00:55:31.696Z,7.30
2017-05-27T00:58:00.083Z,7.40
2017-05-27T01:00:28.491Z,7.62
2017-05-27T01:02:56.933Z,6.80
2017-05-27T01:05:25.404Z,7.10
2017-05-27T01:07:53.857Z,7.18
2017-05-27T01:10:22.244Z,7.14
2017-05-27T01:12:50.639Z,6.60
2017-05-27T01:15:19.036Z,6.30
2017-05-27T01:17:47.433Z,6.80
2017-05-27T01:20:15.981Z,6.78
2017-05-27T01:22:44.332Z,7.08
2017-05-27T01:25:12.712Z,6.44
2017-05-27T01:27:41.114Z,6.16
2017-05-27T01:30:09.503Z,5.88
2017-05-27T01:32:37.884Z,6.22
2017-05-27T01:35:06.280Z,6.02
2017-05-27T01:37:34.744Z,5.88
2017-05-27T01:40:03.334Z,5.98
2017-05-27T01:42:31.738Z,6.22
2017-05-27T01:45:00.132Z,6.06
2017-05-27T01:47:28.717Z,6.28
2017-05-27T01:49:57.095Z,5.98
2017-05-27T01:52:24.720Z,6.40
2017-05-27T01:54:53.125Z,6.68
2017-05-27T01:57:21.679Z,6.70
2017-05-27T01:59:50.086Z,6.58
2017-05-27T02:02:18.449Z,6.76
2017-05-27T02:04:47.007Z,6.32
2017-05-27T02:07:15.474Z,6.18
2017-05-27T02:09:43.860Z,6.08
2017-05-27T02:12:12.215Z,6.58
2017-05-27T02:14:40.580Z,6.38
2017-05-27T02:17:08.935Z,6.42
2017-05-27T02:19:37.328Z,6.32
2017-05-27T02:22:05.718Z,6.12
2017-05-27T02:24:34.115Z,5.90
2017-05-27T02:27:02.490Z,7.12
2017-05-27T02:29:30.855Z,7.66
2017-05-27T02:31:59.251Z,7.02
2017-05-27T02:34:27.633Z,6.92
2017-05-27T02:36:55.994Z,7.16
2017-05-27T02:39:24.385Z,7.78
2017-05-27T02:41:52.847Z,8.64
2017-05-27T02:44:21.215Z,7.86
2017-05-27T02:46:49.607Z,8.80
2017-05-27T02:49:17.993Z,8.18
2017-05-27T02:51:46.368Z,8.52
2017-05-27T02:54:14.782Z,8.26
2017-05-27T02:56:43.170Z,8.84
2017-05-27T02:59:11.574Z,7.32
2017-05-27T03:01:39.962Z,6.84
2017-05-27T03:04:08.331Z,7.20
2017-05-27T03:06:36.718Z,6.96
2017-05-27T03:09:05.108Z,7.74
2017-05-27T03:11:33.491Z,7.40
2017-05-27T03:14:01.936Z,7.20
2017-05-27T03:16:30.424Z,6.88
2017-05-27T03:18:58.800Z,7.44
2017-05-27T03:21:27.156Z,7.84
2017-05-27T03:23:55.582Z,7.14
2017-05-27T03:26:23.974Z,7.20
2017-05-27T03:28:52.404Z,7.32
2017-05-27T03:31:21.055Z,7.26
2017-05-27T03:33:49.417Z,6.92
2017-05-27T03:36:17.774Z,6.60
2017-05-27T03:38:46.161Z,7.66
2017-05-27T03:41:14.546Z,7.34
2017-05-27T03:43:42.922Z,6.90
2017-05-27T03:46:11.291Z,7.44
2017-05-27T03:48:39.664Z,6.58
2017-05-27T03:51:07.286Z,7.48
2017-05-27T03:53:34.875Z,6.66
2017-05-27T03:56:03.288Z,7.02
2017-05-27T03:58:31.741Z,6.56
2017-05-27T04:01:00.143Z,6.76
2017-05-27T04:03:28.574Z,6.24
2017-05-27T04:05:56.971Z,6.22
2017-05-27T04:08:25.373Z,6.56
2017-05-27T04:10:53.782Z,6.38
2017-05-27T04:13:22.192Z,6.70
2017-05-27T04:15:50.583Z,7.20
2017-05-27T04:18:18.992Z,5.88
2017-05-27T04:20:47.383Z,6.30
2017-05-27T04:23:15.780Z,6.28
2017-05-27T04:25:44.239Z,6.54
2017-05-27T04:28:12.597Z,7.10
2017-05-27T04:30:41.000Z,6.52
2017-05-27T04:33:09.416Z,6.70
2017-05-27T04:35:37.806Z,7.00
2017-05-27T04:38:06.152Z,6.72
2017-05-27T04:40:34.539Z,7.64
2017-05-27T04:43:02.894Z,9.18
2017-05-27T04:45:31.279Z,9.78
2017-05-27T04:47:59.676Z,9.36
2017-05-27T04:50:28.048Z,8.66
2017-05-27T04:52:56.482Z,8.08
2017-05-27T04:55:24.918Z,8.24
2017-05-27T04:57:53.276Z,7.84
2017-05-27T05:00:21.630Z,6.78
2017-05-27T05:02:50.028Z,8.20
2017-05-27T05:05:18.446Z,7.80
2017-05-27T05:07:46.836Z,7.82
2017-05-27T05:10:15.307Z,7.56
2017-05-27T05:12:43.682Z,7.74
2017-05-27T05:15:12.071Z,8.18
2017-05-27T05:17:40.431Z,8.10
2017-05-27T05:20:08.780Z,9.02
2017-05-27T05:22:37.140Z,8.02
2017-05-27T05:25:06.263Z,7.78
2017-05-27T05:27:34.629Z,8.30
2017-05-27T05:30:03.000Z,8.58
2017-05-27T05:32:31.358Z,8.36
2017-05-27T05:34:59.718Z,6.78
2017-05-27T05:37:28.104Z,7.42
2017-05-27T05:39:56.488Z,7.16
2017-05-27T05:42:24.835Z,6.68
2017-05-27T05:44:54.203Z,6.72
2017-05-27T05:47:22.619Z,7.18
2017-05-27T05:49:51.063Z,6.90
2017-05-27T05:52:19.402Z,6.50
2017-05-27T05:54:47.795Z,6.84
2017-05-27T05:57:16.173Z,7.26
2017-05-27T05:59:44.640Z,7.10
2017-05-27T06:02:13.117Z,7.44
2017-05-27T06:04:41.562Z,7.72
2017-05-27T06:07:10.079Z,7.50
2017-05-27T06:09:38.101Z,7.12
2017-05-27T06:12:09.224Z,7.06
2017-05-27T06:14:37.842Z,7.40
2017-05-27T06:17:06.289Z,6.86
2017-05-27T06:19:34.711Z,6.42
2017-05-27T06:22:03.162Z,6.74
2017-05-27T06:24:31.621Z,6.30
2017-05-27T06:27:00.107Z,6.84
2017-05-27T06:29:28.540Z,7.20
2017-05-27T06:31:56.949Z,6.10
2017-05-27T06:34:25.534Z,6.34
2017-05-27T06:36:55.165Z,5.74
2017-05-27T06:39:23.584Z,5.70
2017-05-27T06:41:52.116Z,4.72
2017-05-27T06:44:20.574Z,5.16
2017-05-27T06:46:49.003Z,4.80
2017-05-27T06:49:17.458Z,4.58
2017-05-27T06:51:45.935Z,4.80
2017-05-27T06:54:14.344Z,4.68
2017-05-27T06:56:42.806Z,5.06
2017-05-27T06:59:11.257Z,4.80
2017-05-27T07:01:39.983Z,4.70
2017-05-27T07:04:08.439Z,4.52
2017-05-27T07:06:36.846Z,4.28
2017-05-27T07:09:05.313Z,4.70
2017-05-27T07:11:33.679Z,4.40
2017-05-27T07:14:02.097Z,4.92
2017-05-27T07:16:30.556Z,4.48
2017-05-27T07:18:58.230Z,4.20
2017-05-27T07:21:26.698Z,4.16
2017-05-27T07:23:55.162Z,4.88
2017-05-27T07:26:23.613Z,4.58
2017-05-27T07:31:29.171Z,4.00
2017-05-27T07:33:57.659Z,3.88
2017-05-27T07:36:26.143Z,4.12
2017-05-27T07:38:54.665Z,3.68
2017-05-27T07:41:23.125Z,4.28
2017-05-27T07:43:51.607Z,3.90
2017-05-27T07:46:20.066Z,4.02
2017-05-27T07:48:48.576Z,3.90
2017-05-27T07:51:17.040Z,3.48
2017-05-27T07:53:45.463Z,3.62
2017-05-27T07:56:13.918Z,3.58
2017-05-27T07:58:41.573Z,3.54
2017-05-27T08:01:09.220Z,4.14
2017-05-27T08:03:36.923Z,3.66
2017-05-27T08:06:05.352Z,3.90
2017-05-27T08:08:35.292Z,3.66
2017-05-27T08:11:03.762Z,3.34
2017-05-27T08:13:36.948Z,3.68
2017-05-27T08:16:06.188Z,3.58
2017-05-27T08:18:34.669Z,3.80
2017-05-27T08:21:04.599Z,4.18
2017-05-27T08:23:33.088Z,3.84
2017-05-27T08:26:01.659Z,3.86
2017-05-27T08:28:30.195Z,3.92
2017-05-27T08:30:59.784Z,4.12
2017-05-27T08:43:08.224Z,3.84
2017-05-27T08:45:36.715Z,3.64
2017-05-27T08:48:05.156Z,4.12
2017-05-27T08:50:33.783Z,3.74
2017-05-27T08:53:02.381Z,4.04
2017-05-27T08:55:30.880Z,3.70
2017-05-27T08:58:04.507Z,3.72
2017-05-27T09:00:33.074Z,4.30
2017-05-27T09:03:01.546Z,4.12
2017-05-27T09:05:30.053Z,3.66
2017-05-27T09:07:58.506Z,3.66
2017-05-27T09:10:26.195Z,3.80
2017-05-27T09:12:54.916Z,3.60
2017-05-27T09:15:23.427Z,3.70
2017-05-27T09:17:51.900Z,3.60
2017-05-27T09:20:19.626Z,4.58
2017-05-27T09:22:48.095Z,3.42
2017-05-27T09:25:16.537Z,3.52
2017-05-27T09:27:44.931Z,3.50
2017-05-27T09:30:13.351Z,3.62
2017-05-27T09:32:41.935Z,3.58
2017-05-27T09:35:10.334Z,3.44
2017-05-27T09:37:38.813Z,3.26
2017-05-27T09:40:06.463Z,3.72
2017-05-27T09:42:34.898Z,3.24
2017-05-27T09:45:03.326Z,3.30
2017-05-27T09:47:31.801Z,3.24
2017-05-27T09:50:00.261Z,3.40
2017-05-27T09:52:28.627Z,4.08
2017-05-27T09:54:56.991Z,3.60
2017-05-27T09:57:25.428Z,3.40
2017-05-27T09:59:53.812Z,3.58
2017-05-27T10:02:22.386Z,3.44
2017-05-27T10:04:50.016Z,3.30
2017-05-27T10:07:18.400Z,3.66
2017-05-27T10:09:46.838Z,3.42
2017-05-27T10:12:15.295Z,3.36
2017-05-27T10:14:43.671Z,3.46
2017-05-27T10:17:12.188Z,3.68
2017-05-27T10:19:40.663Z,3.60
2017-05-27T10:22:09.128Z,3.82
2017-05-27T10:24:37.526Z,3.38
2017-05-27T10:27:05.977Z,2.76
2017-05-27T10:29:34.446Z,3.36
2017-05-27T10:32:03.037Z,3.38
2017-05-27T10:34:31.508Z,3.48
2017-05-27T10:36:59.950Z,3.70
2017-05-27T10:39:29.352Z,3.50
2017-05-27T10:41:57.835Z,3.84
2017-05-27T10:44:26.443Z,3.06
2017-05-27T10:46:54.852Z,3.32
2017-05-27T10:49:23.626Z,3.56
2017-05-27T10:51:52.172Z,3.70
2017-05-27T10:54:20.616Z,3.00
2017-05-27T10:56:49.053Z,3.34
2017-05-27T10:59:17.485Z,3.20
2017-05-27T11:01:45.844Z,3.30
2017-05-27T11:04:14.225Z,3.42
2017-05-27T11:06:42.763Z,3.84
2017-05-27T11:09:11.328Z,3.36
2017-05-27T11:11:39.783Z,3.50
2017-05-27T11:14:08.640Z,3.76
2017-05-27T11:16:36.992Z,3.70
2017-05-27T11:19:05.408Z,4.14
2017-05-27T11:21:33.611Z,3.86
2017-05-27T11:24:02.071Z,4.24
2017-05-27T11:26:30.446Z,11.30
2017-05-27T11:28:58.833Z,6.78
2017-05-27T11:31:27.269Z,4.12
2017-05-27T11:33:55.778Z,5.20
2017-05-27T11:36:24.264Z,7.76
2017-05-27T11:38:51.991Z,4.16
2017-05-27T11:41:19.739Z,4.56
2017-05-27T11:43:48.176Z,3.68
2017-05-27T11:46:16.655Z,3.94
2017-05-27T11:48:46.777Z,3.58
2017-05-27T11:51:15.207Z,3.84
2017-05-27T11:53:42.840Z,3.64
2017-05-27T11:56:11.300Z,3.64
2017-05-27T11:58:39.751Z,3.18
2017-05-27T12:01:08.328Z,3.52
2017-05-27T12:03:36.057Z,3.48
2017-05-27T12:06:04.533Z,3.98
2017-05-27T12:08:32.981Z,3.40
2017-05-27T12:11:01.471Z,3.56
2017-05-27T12:13:29.899Z,3.32
2017-05-27T12:15:58.377Z,3.68
2017-05-27T12:18:26.775Z,3.24
2017-05-27T12:20:54.468Z,3.32
2017-05-27T12:23:22.909Z,3.80
2017-05-27T12:25:51.335Z,3.06
2017-05-27T12:28:19.747Z,3.18
2017-05-27T12:30:48.148Z,3.34
2017-05-27T12:33:16.522Z,3.34
2017-05-27T12:35:44.915Z,3.26
2017-05-27T12:38:13.310Z,3.00
2017-05-27T12:40:41.686Z,3.42
2017-05-27T12:43:10.164Z,3.16
2017-05-27T12:45:38.575Z,3.28
2017-05-27T12:48:06.968Z,3.18
2017-05-27T12:50:35.478Z,3.16
2017-05-27T12:53:03.896Z,3.58
2017-05-27T12:55:32.362Z,3.50
2017-05-27T12:58:00.701Z,2.88
2017-05-27T13:00:29.293Z,3.10
2017-05-27T13:02:57.027Z,3.14
2017-05-27T13:05:25.563Z,3.34
2017-05-27T13:07:53.954Z,3.28
2017-05-27T13:10:22.480Z,3.64
2017-05-27T13:12:51.052Z,3.22
2017-05-27T13:15:19.479Z,3.28
2017-05-27T13:17:47.866Z,2.96
2017-05-27T13:20:16.259Z,2.68
2017-05-27T13:22:44.635Z,2.94
2017-05-27T13:25:13.005Z,3.28
2017-05-27T13:27:41.499Z,3.10
2017-05-27T13:30:09.862Z,3.36
2017-05-27T13:32:38.224Z,3.34
2017-05-27T13:35:06.741Z,3.18
2017-05-27T13:37:35.192Z,3.34
2017-05-27T13:40:03.663Z,3.04
2017-05-27T13:42:32.110Z,2.64
2017-05-27T13:45:02.820Z,3.16
2017-05-27T13:47:31.366Z,2.74
2017-05-27T13:49:59.899Z,6.08
2017-05-27T13:52:28.318Z,4.60
2017-05-27T13:54:57.343Z,3.48
2017-05-27T13:57:25.763Z,2.74
2017-05-27T13:59:54.135Z,3.30
2017-05-27T14:02:22.540Z,3.88
2017-05-27T14:04:50.963Z,3.38
2017-05-27T14:07:19.392Z,3.00
2017-05-27T14:09:47.990Z,3.30
2017-05-27T14:12:16.358Z,3.10
2017-05-27T14:14:44.886Z,2.98
2017-05-27T14:17:13.287Z,2.70
2017-05-27T14:19:41.684Z,3.42
2017-05-27T14:22:10.194Z,3.44
2017-05-27T14:24:39.573Z,3.30
2017-05-27T14:27:08.308Z,3.02
2017-05-27T14:29:45.967Z,6.26
2017-05-27T14:32:14.410Z,3.54
2017-05-27T14:34:44.090Z,3.40
2017-05-27T14:37:12.504Z,3.22
2017-05-27T14:39:40.951Z,4.22
2017-05-27T14:42:09.373Z,4.02
2017-05-27T14:44:37.780Z,3.30
2017-05-27T14:47:06.286Z,19.98
2017-05-27T14:49:35.040Z,21.30
2017-05-27T14:52:02.669Z,11.14
2017-05-27T14:54:31.572Z,7.02
2017-05-27T14:57:00.091Z,5.70
2017-05-27T14:59:28.961Z,3.28
2017-05-27T15:01:57.406Z,5.84
2017-05-27T15:04:26.167Z,3.90
2017-05-27T15:06:54.791Z,3.34
2017-05-27T15:09:23.159Z,3.12
2017-05-27T15:11:51.801Z,3.72
2017-05-27T15:14:20.224Z,3.46
2017-05-27T15:16:48.656Z,3.58
2017-05-27T15:19:17.052Z,3.82
2017-05-27T15:21:45.496Z,3.48
2017-05-27T15:24:13.888Z,4.72
2017-05-27T15:26:42.328Z,4.92
2017-05-27T15:29:10.807Z,5.38
2017-05-27T15:31:39.436Z,4.12
2017-05-27T15:34:07.815Z,109.32
2017-05-27T15:36:36.182Z,6.80
2017-05-27T15:39:04.624Z,18.72
2017-05-27T15:41:32.975Z,5.08
2017-05-27T15:44:01.380Z,27.94
2017-05-27T15:46:29.750Z,9.56
2017-05-27T15:48:58.110Z,14.16
2017-05-27T15:51:26.486Z,22.20
2017-05-27T15:53:55.059Z,37.00
2017-05-27T15:56:23.423Z,13.64
2017-05-27T15:58:52.014Z,16.10
2017-05-27T16:01:20.376Z,7.12
2017-05-27T16:03:49.358Z,7.20
2017-05-27T16:06:17.749Z,8.80
2017-05-27T16:08:46.148Z,5.18
2017-05-27T16:11:14.523Z,4.12
2017-05-27T16:13:42.887Z,5.38
2017-05-27T16:16:11.250Z,5.16
2017-05-27T16:18:40.101Z,5.18
2017-05-27T16:21:08.467Z,14.66
2017-05-27T16:23:37.723Z,7.28
2017-05-27T16:26:06.091Z,40.00
2017-05-27T16:28:34.604Z,16.90
2017-05-27T16:31:02.983Z,20.66
2017-05-27T16:33:31.368Z,137.62
2017-05-27T16:35:59.761Z,169.90
2017-05-27T16:38:28.159Z,80.74
2017-05-27T16:40:56.596Z,31.52
2017-05-27T16:43:25.041Z,5.24
2017-05-27T16:45:53.449Z,9.96
2017-05-27T16:48:21.917Z,6.00
2017-05-27T16:50:50.305Z,5.20
2017-05-27T16:53:18.666Z,5.60
2017-05-27T16:55:47.067Z,4.22
2017-05-27T16:58:15.446Z,8.82
2017-05-27T17:00:43.087Z,6.06
2017-05-27T17:03:11.455Z,4.18
2017-05-27T17:05:39.855Z,4.26
2017-05-27T17:08:08.303Z,4.10
2017-05-27T17:10:36.689Z,4.68
2017-05-27T17:13:05.111Z,4.34
2017-05-27T17:15:33.584Z,21.54
2017-05-27T17:18:02.043Z,9.08
2017-05-27T17:20:30.550Z,5.14
2017-05-27T17:22:58.987Z,4.58
2017-05-27T17:25:27.362Z,4.96
2017-05-27T17:27:55.757Z,4.04
2017-05-27T17:30:24.163Z,3.94
2017-05-27T17:32:52.515Z,4.00
2017-05-27T17:35:20.866Z,3.82
2017-05-27T17:37:49.273Z,4.02
2017-05-27T17:40:17.667Z,4.30
2017-05-27T17:42:46.050Z,4.58
2017-05-27T17:45:14.407Z,4.46
2017-05-27T17:47:42.738Z,4.34
2017-05-27T17:50:11.145Z,4.34
2017-05-27T17:52:39.587Z,4.80
2017-05-27T17:55:07.991Z,4.76
2017-05-27T17:57:36.447Z,4.92
2017-05-27T18:00:04.827Z,4.76
2017-05-27T18:02:33.194Z,4.48
2017-05-27T18:05:01.635Z,4.02
2017-05-27T18:07:30.010Z,4.00
2017-05-27T18:09:58.509Z,4.82
2017-05-27T18:12:26.155Z,3.92
2017-05-27T18:14:54.556Z,4.30
2017-05-27T18:17:22.919Z,4.30
2017-05-27T18:19:50.544Z,4.06
2017-05-27T18:22:18.913Z,4.74
2017-05-27T18:24:46.525Z,4.60
2017-05-27T18:27:14.955Z,4.58
2017-05-27T18:29:43.312Z,4.62
2017-05-27T18:32:11.689Z,4.62
2017-05-27T18:34:40.265Z,4.82
2017-05-27T18:37:08.679Z,4.86
2017-05-27T18:39:37.311Z,4.98
2017-05-27T18:42:05.717Z,5.00
2017-05-27T18:44:34.127Z,4.12
2017-05-27T18:47:02.533Z,5.20
2017-05-27T18:49:30.896Z,4.60
2017-05-27T18:51:59.250Z,5.08
2017-05-27T18:54:27.641Z,4.44
2017-05-27T18:56:56.135Z,4.80
2017-05-27T18:59:24.522Z,4.98
2017-05-27T19:01:52.897Z,5.10
2017-05-27T19:04:21.252Z,5.30
2017-05-27T19:06:49.654Z,5.12
2017-05-27T19:09:18.026Z,4.82
2017-05-27T19:11:46.453Z,5.50
2017-05-27T19:14:14.801Z,5.08
2017-05-27T19:16:43.208Z,5.04
2017-05-27T19:19:11.581Z,5.38
2017-05-27T19:21:39.955Z,4.78
2017-05-27T19:24:08.338Z,4.70
2017-05-27T19:26:36.693Z,5.58
2017-05-27T19:29:05.035Z,4.82
2017-05-27T19:31:33.440Z,5.32
2017-05-27T19:34:02.987Z,5.32
2017-05-27T19:36:31.359Z,5.50
2017-05-27T19:38:59.726Z,4.88
2017-05-27T19:41:28.139Z,4.98
2017-05-27T19:43:56.568Z,5.10
2017-05-27T19:46:24.967Z,4.92
2017-05-27T19:48:53.362Z,4.90
2017-05-27T19:51:21.748Z,5.40
2017-05-27T19:53:50.135Z,5.38
2017-05-27T19:56:18.485Z,4.64
2017-05-27T19:58:46.842Z,5.38
2017-05-27T20:01:15.247Z,5.42
2017-05-27T20:03:43.621Z,6.06
2017-05-27T20:06:12.009Z,5.00
2017-05-27T20:08:40.410Z,6.12
2017-05-27T20:11:08.870Z,6.08
2017-05-27T20:13:37.237Z,5.56
2017-05-27T20:16:05.678Z,5.78
2017-05-27T20:18:34.097Z,5.52
2017-05-27T20:21:02.500Z,4.90
2017-05-27T20:23:30.958Z,4.80
2017-05-27T20:25:59.371Z,5.16
2017-05-27T20:28:27.811Z,5.38
2017-05-27T20:30:56.309Z,5.72
2017-05-27T20:33:24.709Z,5.08
2017-05-27T20:35:53.131Z,5.02
2017-05-27T20:38:21.611Z,5.16
2017-05-27T20:40:49.944Z,5.24
2017-05-27T20:43:18.366Z,5.12
2017-05-27T20:45:47.248Z,5.68
2017-05-27T20:48:15.674Z,5.12
2017-05-27T20:50:44.106Z,5.78
2017-05-27T20:53:12.469Z,4.80
2017-05-27T20:55:40.893Z,5.42
2017-05-27T20:58:09.256Z,5.28
2017-05-27T21:00:37.612Z,5.30
2017-05-27T21:03:06.039Z,5.76
2017-05-27T21:05:34.416Z,4.92
2017-05-27T21:08:02.867Z,4.90
2017-05-27T21:10:31.239Z,5.30
2017-05-27T21:12:59.619Z,5.66
2017-05-27T21:15:27.974Z,5.38
2017-05-27T21:17:56.411Z,5.46
2017-05-27T21:20:24.825Z,5.40
2017-05-27T21:22:53.250Z,5.46
2017-05-27T21:25:20.915Z,5.56
2017-05-27T21:27:49.334Z,5.76
2017-05-27T21:30:16.976Z,5.18
2017-05-27T21:32:44.645Z,5.88
2017-05-27T21:35:13.014Z,5.32
2017-05-27T21:37:41.462Z,5.74
2017-05-27T21:40:09.852Z,5.86
2017-05-27T21:42:38.233Z,5.60
2017-05-27T21:45:06.681Z,5.70
2017-05-27T21:47:35.072Z,6.00
2017-05-27T21:50:03.461Z,5.52
2017-05-27T21:52:31.871Z,5.34
2017-05-27T21:55:00.252Z,5.30
2017-05-27T21:57:28.679Z,5.90
2017-05-27T21:59:56.364Z,5.54
2017-05-27T22:02:24.784Z,5.58
2017-05-27T22:04:53.176Z,5.34
2017-05-27T22:07:21.610Z,5.72
2017-05-27T22:09:50.002Z,5.60
2017-05-27T22:12:18.400Z,6.26
2017-05-27T22:14:46.816Z,5.54
2017-05-27T22:17:15.210Z,6.04
2017-05-27T22:19:43.628Z,5.28
2017-05-27T22:22:12.071Z,5.76
2017-05-27T22:24:39.708Z,5.60
2017-05-27T22:27:08.104Z,5.92
2017-05-27T22:29:36.534Z,5.20
2017-05-27T22:32:04.940Z,5.84
2017-05-27T22:34:33.351Z,5.66
2017-05-27T22:37:01.744Z,6.36
2017-05-27T22:39:30.155Z,5.62
2017-05-27T22:41:58.549Z,5.72
2017-05-27T22:44:26.937Z,5.92
2017-05-27T22:46:55.370Z,6.00
2017-05-27T22:49:23.757Z,5.94
2017-05-27T22:51:52.147Z,5.22
2017-05-27T22:54:19.792Z,5.66
2017-05-27T22:56:48.217Z,5.82
2017-05-27T22:59:15.868Z,5.76
2017-05-27T23:01:44.306Z,6.60
2017-05-27T23:04:12.719Z,5.92
2017-05-27T23:06:41.109Z,5.70
2017-05-27T23:09:08.831Z,5.72
2017-05-27T23:11:37.233Z,5.82
2017-05-27T23:14:05.648Z,5.62
2017-05-27T23:16:34.094Z,5.88
2017-05-27T23:19:02.512Z,5.38
2017-05-27T23:21:30.136Z,5.80
2017-05-27T23:23:58.583Z,5.84
2017-05-27T23:26:26.989Z,5.58
2017-05-27T23:28:55.404Z,5.88
2017-05-27T23:31:23.826Z,5.64
2017-05-27T23:33:51.435Z,5.96
2017-05-27T23:36:20.223Z,5.52
2017-05-27T23:38:48.472Z,5.82
2017-05-27T23:41:16.976Z,5.94
2017-05-27T23:43:45.388Z,5.12
2017-05-27T23:46:13.824Z,5.80
2017-05-27T23:48:42.242Z,5.12
2017-05-27T23:51:10.645Z,5.24
2017-05-27T23:53:39.057Z,5.82
2017-05-27T23:56:07.448Z,6.36
2017-05-27T23:58:35.846Z,5.88
